« 酒田港まつり 酒田港古湊埠頭 2011/8/5 fri | トップページ | みちのく丸 富山新港 2011/8/12 fri »

2011/08/06

ブルーインパルス事前訓練 千歳飛行場 2011/8/6 sat 

今年最初の航空祭となる千歳航空祭。その事前訓練が、ほぼスケジュールに沿った形で実施された。F15,F4,F2,F16,T4,B747等が順次フライトした。復活となるブルーインパルスは、復興途上のためか第5区分なる課目だ。背面飛行系を排した課目で構成され、4機によるミッシングマンフォーメーションや2機によるさよならブレイク(正式課目名は不明、小生の呼び名)等が含まれていた。

METAR RJCC 060400Z 18011KT 9999 FEW015 FEW030TCU SCT140 BKN/// 27/22 Q1010

20110806_rjcj_00bi_2

最初のダーティーローパス

20110806_rjcj_01bi_2

国道36号上空をスワンローパス

後は、後刻

|

« 酒田港まつり 酒田港古湊埠頭 2011/8/5 fri | トップページ | みちのく丸 富山新港 2011/8/12 fri »

BI」カテゴリの記事

千歳飛行場」カテゴリの記事

コメント

コメントを書く



(ウェブ上には掲載しません)


コメントは記事投稿者が公開するまで表示されません。



トラックバック


この記事へのトラックバック一覧です: ブルーインパルス事前訓練 千歳飛行場 2011/8/6 sat :

« 酒田港まつり 酒田港古湊埠頭 2011/8/5 fri | トップページ | みちのく丸 富山新港 2011/8/12 fri »